• Join FlightAware (Why Join?)
  • Login
  • US Flag 
08:01PM EDT


 

Airport Tracker/Info


-or-


 

Live Flight TrackerFlight Track Log ✈ FAB804 ✈ 06-May-2013 ✈ CYFB - CYXP

Flight Track Log - Related Links

Times and Time Zones

All times are in EDT time to prevent confusion due to time zone crossing. See the FAB804 flight status page for this flight to view local times or setup timezone preferences in your user account.

Time Position Orientation Groundspeed Altitude Reporting Facility
EDT Latitude Longitude Course Direction KTS MPH feet Rate Location/Type
06:58PM 63.8000 -68.5333 33° Northeast 100 115 1,500  Level Montreal Center
07:00PM 63.8721 -68.4253 33° Northeast  Level FlightAware Approximate
07:00PM 63.8667 -68.4333 33° Northeast 150 173 3,600  Level Montreal Center
07:01PM 63.9000 -68.3833 33° Northeast 150 173 4,900 1,200 Climbing Montreal Center
07:02PM 63.9333 -68.3333 33° Northeast 160 184 6,100 1,320 Climbing Montreal Center
07:03PM 63.9667 -68.2833 33° Northeast 170 196 7,600 1,260 Climbing Montreal Center
07:05PM 64.0478 -68.2122 27° Northeast  Level FlightAware Approximate
07:07PM 64.1667 -68.0833 27° Northeast 180 207 12,400  Level Montreal Center
07:08PM 64.2167 -68.0333 24° Northeast 190 219 13,400 1,020 Climbing Montreal Center
07:09PM 64.2500 -67.9833 33° Northeast 200 230 14,500 1,020 Climbing Montreal Center
07:10PM 64.3000 -67.9333 23° Northeast 200 230 15,500 1,020 Climbing Montreal Center
07:11PM 64.2833 -67.7333 101° East 210 242 16,300 1,020 Climbing Edmonton Center
07:12PM 64.4373 -67.7823 27° Northeast  Level FlightAware Approximate
07:12PM 64.3333 -67.6833 23° Northeast 210 242 17,300  Level Edmonton Center
07:13PM 64.4500 -67.7667 343° North 210 242 18,800 720 Climbing Montreal Center
07:14PM 64.5167 -67.6833 28° Northeast 230 265 19,000 60 Climbing Montreal Center
07:15PM 64.5667 -67.6167 30° Northeast 250 288 19,000  Level Montreal Center
07:16PM 64.6500 -67.5500 19° North 270 311 19,000  Level Montreal Center
07:17PM 64.7167 -67.5000 18° North 280 322 19,000  Level Montreal Center
07:18PM 64.8000 -67.4333 19° North 280 322 19,000  Level Montreal Center
07:19PM 64.8667 -67.3833 18° North 280 322 19,000  Level Montreal Center
07:21PM 64.9568 -67.2716 25° Northeast  Level Estimated
07:22PM 65.0833 -67.1833 25° Northeast 280 322 19,000  Level Montreal Center
07:23PM 65.1500 -67.1333 17° North 280 322 19,000  Level Montreal Center
07:24PM 65.2333 -67.0667 19° North 280 322 19,000  Level Montreal Center
07:25PM 65.2167 -66.8333 100° East 280 322 19,000  Level Edmonton Center
07:25PM 65.3000 -67.0000 320° Northwest 280 322 19,000  Level Montreal Center
07:26PM 65.3667 -66.9333 23° Northeast 280 322 19,000  Level Montreal Center
07:28PM 65.4109 -66.7130 64° Northeast  Level FlightAware Approximate
07:29PM 65.5833 -66.7500 64° Northeast 280 322 19,000  Level Montreal Center
07:31PM 65.6621 -66.6032 38° Northeast  Level FlightAware Approximate
07:38PM 65.9946 -65.9705 38° Northeast  Level FlightAware Approximate
07:39PM 66.0418 -65.8788 38° Northeast  Level FlightAware Approximate
07:40PM 66.0891 -65.7867 38° Northeast  Level FlightAware Approximate
07:41PM 66.1333 -65.7000 37° Northeast  Level FlightAware Approximate
07:42PM 66.1450 -65.7136 37° Northeast  Level Estimated
07:43PM 66.1450 -65.7136 37° Northeast  Level Estimated
07:44PM 66.1450 -65.7136 37° Northeast  Level Estimated
07:45PM 66.1450 -65.7136 37° Northeast  Level Estimated
07:46PM 66.1450 -65.7136 37° Northeast  Level Estimated
07:47PM 66.1450 -65.7136 37° Northeast  Level Estimated
07:48PM 66.1450 -65.7136 37° Northeast  Level Estimated
07:49PM 66.1450 -65.7136 37° Northeast  Level Estimated
07:50PM 66.1450 -65.7136 37° Northeast  Level Estimated
07:51PM 66.1450 -65.7136 37° Northeast  Level Estimated
07:52PM 66.1450 -65.7136 37° Northeast  Level Estimated
07:53PM 66.1450 -65.7136 37° Northeast  Level Estimated
07:54PM 66.1450 -65.7136 37° Northeast  Level Estimated
07:55PM 66.1450 -65.7136 37° Northeast  Level Estimated
07:56PM 66.1450 -65.7136 37° Northeast  Level Estimated
07:57PM 66.1450 -65.7136 37° Northeast  Level Estimated